sensor_id;sensor_type;location;lat;lon;timestamp;P1;durP1;ratioP1;P2;durP2;ratioP2
72065;SDS011;59939;52.516;13.420;2023-07-29T00:02:24;21.02;;;12.07;;
72065;SDS011;59939;52.516;13.420;2023-07-29T00:09:01;24.13;;;13.70;;
72065;SDS011;59939;52.516;13.420;2023-07-29T00:12:05;23.25;;;12.27;;
72065;SDS011;59939;52.516;13.420;2023-07-29T00:15:09;25.38;;;14.55;;
72065;SDS011;59939;52.516;13.420;2023-07-29T00:21:56;24.30;;;12.90;;
72065;SDS011;59939;52.516;13.420;2023-07-29T00:25:00;23.20;;;13.23;;
72065;SDS011;59939;52.516;13.420;2023-07-29T00:28:04;23.98;;;13.65;;
72065;SDS011;59939;52.516;13.420;2023-07-29T00:31:08;21.02;;;12.15;;
72065;SDS011;59939;52.516;13.420;2023-07-29T00:34:11;20.05;;;11.60;;
72065;SDS011;59939;52.516;13.420;2023-07-29T00:37:24;20.55;;;11.68;;
72065;SDS011;59939;52.516;13.420;2023-07-29T00:40:28;23.15;;;12.43;;
72065;SDS011;59939;52.516;13.420;2023-07-29T00:43:34;23.33;;;12.73;;
72065;SDS011;59939;52.516;13.420;2023-07-29T00:46:38;26.63;;;14.32;;
72065;SDS011;59939;52.516;13.420;2023-07-29T00:49:44;22.92;;;12.48;;
72065;SDS011;59939;52.516;13.420;2023-07-29T00:52:51;22.92;;;11.60;;
72065;SDS011;59939;52.516;13.420;2023-07-29T00:55:55;22.75;;;13.65;;
72065;SDS011;59939;52.516;13.420;2023-07-29T00:58:59;23.33;;;12.70;;
72065;SDS011;59939;52.516;13.420;2023-07-29T01:02:12;25.15;;;13.38;;
72065;SDS011;59939;52.516;13.420;2023-07-29T01:05:16;24.80;;;14.63;;
72065;SDS011;59939;52.516;13.420;2023-07-29T01:08:31;25.58;;;15.30;;
72065;SDS011;59939;52.516;13.420;2023-07-29T01:14:47;23.27;;;13.40;;
72065;SDS011;59939;52.516;13.420;2023-07-29T01:17:56;25.55;;;13.73;;
72065;SDS011;59939;52.516;13.420;2023-07-29T01:21:03;28.08;;;17.13;;
72065;SDS011;59939;52.516;13.420;2023-07-29T01:24:10;24.52;;;14.20;;
72065;SDS011;59939;52.516;13.420;2023-07-29T01:27:16;27.80;;;15.40;;
72065;SDS011;59939;52.516;13.420;2023-07-29T01:30:20;26.02;;;15.75;;
72065;SDS011;59939;52.516;13.420;2023-07-29T01:33:30;25.63;;;15.10;;
72065;SDS011;59939;52.516;13.420;2023-07-29T01:36:37;27.90;;;16.55;;
72065;SDS011;59939;52.516;13.420;2023-07-29T01:39:44;29.50;;;16.55;;
72065;SDS011;59939;52.516;13.420;2023-07-29T01:42:49;26.88;;;16.33;;
72065;SDS011;59939;52.516;13.420;2023-07-29T01:45:54;23.58;;;14.18;;
72065;SDS011;59939;52.516;13.420;2023-07-29T01:49:01;26.33;;;15.95;;
72065;SDS011;59939;52.516;13.420;2023-07-29T01:52:08;25.27;;;14.43;;
72065;SDS011;59939;52.516;13.420;2023-07-29T01:55:15;23.83;;;13.57;;
72065;SDS011;59939;52.516;13.420;2023-07-29T01:58:20;27.77;;;14.73;;
72065;SDS011;59939;52.516;13.420;2023-07-29T02:01:25;22.92;;;13.73;;
72065;SDS011;59939;52.516;13.420;2023-07-29T02:04:28;24.83;;;15.35;;
72065;SDS011;59939;52.516;13.420;2023-07-29T02:07:32;22.38;;;13.90;;
72065;SDS011;59939;52.516;13.420;2023-07-29T02:10:36;28.15;;;16.50;;
72065;SDS011;59939;52.516;13.420;2023-07-29T02:13:41;24.60;;;15.00;;
72065;SDS011;59939;52.516;13.420;2023-07-29T02:16:50;28.15;;;16.15;;
72065;SDS011;59939;52.516;13.420;2023-07-29T02:20:03;25.70;;;16.02;;
72065;SDS011;59939;52.516;13.420;2023-07-29T02:23:07;26.60;;;16.13;;
72065;SDS011;59939;52.516;13.420;2023-07-29T02:26:11;33.25;;;17.80;;
72065;SDS011;59939;52.516;13.420;2023-07-29T02:29:15;29.30;;;16.15;;
72065;SDS011;59939;52.516;13.420;2023-07-29T02:32:19;24.42;;;13.73;;
72065;SDS011;59939;52.516;13.420;2023-07-29T02:35:22;25.88;;;15.40;;
72065;SDS011;59939;52.516;13.420;2023-07-29T02:38:27;25.48;;;15.15;;
72065;SDS011;59939;52.516;13.420;2023-07-29T02:41:31;24.70;;;14.80;;
72065;SDS011;59939;52.516;13.420;2023-07-29T02:44:35;25.65;;;14.70;;
72065;SDS011;59939;52.516;13.420;2023-07-29T02:47:39;29.00;;;16.50;;
72065;SDS011;59939;52.516;13.420;2023-07-29T02:50:43;27.27;;;16.42;;
72065;SDS011;59939;52.516;13.420;2023-07-29T02:53:51;26.23;;;15.30;;
72065;SDS011;59939;52.516;13.420;2023-07-29T02:56:56;26.77;;;15.27;;
72065;SDS011;59939;52.516;13.420;2023-07-29T03:03:35;26.55;;;14.32;;
72065;SDS011;59939;52.516;13.420;2023-07-29T03:06:40;27.40;;;15.50;;
72065;SDS011;59939;52.516;13.420;2023-07-29T03:09:51;25.15;;;13.52;;
72065;SDS011;59939;52.516;13.420;2023-07-29T03:12:54;25.85;;;14.48;;
72065;SDS011;59939;52.516;13.420;2023-07-29T03:16:06;26.48;;;15.77;;
72065;SDS011;59939;52.516;13.420;2023-07-29T03:19:11;25.23;;;14.60;;
72065;SDS011;59939;52.516;13.420;2023-07-29T03:22:15;23.50;;;13.52;;
72065;SDS011;59939;52.516;13.420;2023-07-29T03:25:19;22.88;;;13.10;;
72065;SDS011;59939;52.516;13.420;2023-07-29T03:28:32;24.70;;;14.00;;
72065;SDS011;59939;52.516;13.420;2023-07-29T03:31:43;23.23;;;13.48;;
72065;SDS011;59939;52.516;13.420;2023-07-29T03:34:48;25.40;;;14.60;;
72065;SDS011;59939;52.516;13.420;2023-07-29T03:37:52;25.58;;;15.00;;
72065;SDS011;59939;52.516;13.420;2023-07-29T03:40:56;26.85;;;15.00;;
72065;SDS011;59939;52.516;13.420;2023-07-29T03:44:00;25.20;;;13.48;;
72065;SDS011;59939;52.516;13.420;2023-07-29T03:47:06;27.50;;;16.65;;
72065;SDS011;59939;52.516;13.420;2023-07-29T03:50:19;27.65;;;16.10;;
72065;SDS011;59939;52.516;13.420;2023-07-29T03:53:23;24.23;;;14.80;;
72065;SDS011;59939;52.516;13.420;2023-07-29T03:56:28;28.30;;;17.65;;
72065;SDS011;59939;52.516;13.420;2023-07-29T03:59:32;28.73;;;16.35;;
72065;SDS011;59939;52.516;13.420;2023-07-29T04:02:37;26.42;;;16.60;;
72065;SDS011;59939;52.516;13.420;2023-07-29T04:05:42;29.88;;;16.15;;
72065;SDS011;59939;52.516;13.420;2023-07-29T04:09:00;23.13;;;13.90;;
72065;SDS011;59939;52.516;13.420;2023-07-29T04:12:05;23.25;;;14.10;;
72065;SDS011;59939;52.516;13.420;2023-07-29T04:15:10;27.25;;;16.65;;
72065;SDS011;59939;52.516;13.420;2023-07-29T04:18:14;24.65;;;13.80;;
72065;SDS011;59939;52.516;13.420;2023-07-29T04:21:20;28.75;;;16.05;;
72065;SDS011;59939;52.516;13.420;2023-07-29T04:24:31;25.60;;;15.38;;
72065;SDS011;59939;52.516;13.420;2023-07-29T04:27:36;22.95;;;14.65;;
72065;SDS011;59939;52.516;13.420;2023-07-29T04:30:41;25.05;;;12.48;;
72065;SDS011;59939;52.516;13.420;2023-07-29T04:33:45;24.02;;;14.02;;
72065;SDS011;59939;52.516;13.420;2023-07-29T04:36:49;19.30;;;11.55;;
72065;SDS011;59939;52.516;13.420;2023-07-29T04:39:53;18.42;;;11.45;;
72065;SDS011;59939;52.516;13.420;2023-07-29T04:43:04;19.73;;;11.40;;
72065;SDS011;59939;52.516;13.420;2023-07-29T04:46:08;19.67;;;10.43;;
72065;SDS011;59939;52.516;13.420;2023-07-29T04:49:13;19.65;;;11.65;;
72065;SDS011;59939;52.516;13.420;2023-07-29T04:52:24;19.85;;;11.13;;
72065;SDS011;59939;52.516;13.420;2023-07-29T04:55:31;18.58;;;10.55;;
72065;SDS011;59939;52.516;13.420;2023-07-29T04:58:34;18.95;;;10.73;;
72065;SDS011;59939;52.516;13.420;2023-07-29T05:01:46;19.25;;;9.93;;
72065;SDS011;59939;52.516;13.420;2023-07-29T05:04:52;17.50;;;10.10;;
72065;SDS011;59939;52.516;13.420;2023-07-29T05:07:55;18.75;;;10.38;;
72065;SDS011;59939;52.516;13.420;2023-07-29T05:11:13;19.60;;;9.70;;
72065;SDS011;59939;52.516;13.420;2023-07-29T05:14:17;18.73;;;9.05;;
72065;SDS011;59939;52.516;13.420;2023-07-29T05:17:23;17.67;;;9.77;;
72065;SDS011;59939;52.516;13.420;2023-07-29T05:20:27;16.25;;;9.52;;
72065;SDS011;59939;52.516;13.420;2023-07-29T05:23:31;19.15;;;9.25;;
72065;SDS011;59939;52.516;13.420;2023-07-29T05:26:37;16.33;;;9.20;;
72065;SDS011;59939;52.516;13.420;2023-07-29T05:29:42;15.70;;;8.75;;
72065;SDS011;59939;52.516;13.420;2023-07-29T05:32:48;16.50;;;9.20;;
72065;SDS011;59939;52.516;13.420;2023-07-29T05:35:52;17.77;;;8.68;;
72065;SDS011;59939;52.516;13.420;2023-07-29T05:38:57;16.98;;;8.85;;
72065;SDS011;59939;52.516;13.420;2023-07-29T05:42:01;14.23;;;8.35;;
72065;SDS011;59939;52.516;13.420;2023-07-29T05:45:15;16.95;;;8.63;;
72065;SDS011;59939;52.516;13.420;2023-07-29T05:48:19;18.58;;;9.07;;
72065;SDS011;59939;52.516;13.420;2023-07-29T05:51:31;15.80;;;8.75;;
72065;SDS011;59939;52.516;13.420;2023-07-29T05:54:34;15.52;;;8.50;;
72065;SDS011;59939;52.516;13.420;2023-07-29T05:57:38;18.73;;;8.75;;
72065;SDS011;59939;52.516;13.420;2023-07-29T06:00:44;14.65;;;7.82;;
72065;SDS011;59939;52.516;13.420;2023-07-29T06:03:56;16.63;;;8.43;;
72065;SDS011;59939;52.516;13.420;2023-07-29T06:07:03;14.60;;;8.05;;
72065;SDS011;59939;52.516;13.420;2023-07-29T06:10:08;14.43;;;7.53;;
72065;SDS011;59939;52.516;13.420;2023-07-29T06:13:19;14.10;;;7.60;;
72065;SDS011;59939;52.516;13.420;2023-07-29T06:16:23;14.63;;;7.40;;
72065;SDS011;59939;52.516;13.420;2023-07-29T06:19:29;14.50;;;7.28;;
72065;SDS011;59939;52.516;13.420;2023-07-29T06:22:33;14.30;;;6.85;;
72065;SDS011;59939;52.516;13.420;2023-07-29T06:25:40;15.85;;;6.97;;
72065;SDS011;59939;52.516;13.420;2023-07-29T06:28:44;13.57;;;6.60;;
72065;SDS011;59939;52.516;13.420;2023-07-29T06:31:47;14.95;;;6.97;;
72065;SDS011;59939;52.516;13.420;2023-07-29T06:34:51;15.60;;;7.30;;
72065;SDS011;59939;52.516;13.420;2023-07-29T06:38:00;14.23;;;6.80;;
72065;SDS011;59939;52.516;13.420;2023-07-29T06:41:06;11.48;;;5.78;;
72065;SDS011;59939;52.516;13.420;2023-07-29T06:44:09;12.07;;;5.65;;
72065;SDS011;59939;52.516;13.420;2023-07-29T06:47:13;12.15;;;5.97;;
72065;SDS011;59939;52.516;13.420;2023-07-29T06:50:20;16.13;;;7.18;;
72065;SDS011;59939;52.516;13.420;2023-07-29T06:53:24;13.18;;;5.95;;
72065;SDS011;59939;52.516;13.420;2023-07-29T06:56:37;13.20;;;5.30;;
72065;SDS011;59939;52.516;13.420;2023-07-29T06:59:41;12.85;;;5.65;;
72065;SDS011;59939;52.516;13.420;2023-07-29T07:02:47;12.23;;;5.68;;
72065;SDS011;59939;52.516;13.420;2023-07-29T07:06:00;14.15;;;5.90;;
72065;SDS011;59939;52.516;13.420;2023-07-29T07:09:03;11.10;;;5.40;;
72065;SDS011;59939;52.516;13.420;2023-07-29T07:12:07;12.07;;;5.57;;
72065;SDS011;59939;52.516;13.420;2023-07-29T07:15:12;11.57;;;5.28;;
72065;SDS011;59939;52.516;13.420;2023-07-29T07:18:23;12.57;;;5.63;;
72065;SDS011;59939;52.516;13.420;2023-07-29T07:21:29;11.63;;;4.82;;
72065;SDS011;59939;52.516;13.420;2023-07-29T07:24:37;17.25;;;6.38;;
72065;SDS011;59939;52.516;13.420;2023-07-29T07:27:40;13.02;;;6.00;;
72065;SDS011;59939;52.516;13.420;2023-07-29T07:30:44;13.73;;;5.63;;
72065;SDS011;59939;52.516;13.420;2023-07-29T07:33:48;11.95;;;5.47;;
72065;SDS011;59939;52.516;13.420;2023-07-29T07:36:51;12.10;;;6.13;;
72065;SDS011;59939;52.516;13.420;2023-07-29T07:39:56;13.85;;;6.22;;
72065;SDS011;59939;52.516;13.420;2023-07-29T07:42:59;12.65;;;6.35;;
72065;SDS011;59939;52.516;13.420;2023-07-29T07:46:05;14.05;;;6.05;;
72065;SDS011;59939;52.516;13.420;2023-07-29T07:49:09;13.73;;;7.13;;
72065;SDS011;59939;52.516;13.420;2023-07-29T07:52:13;13.75;;;7.35;;
72065;SDS011;59939;52.516;13.420;2023-07-29T07:55:19;14.15;;;6.03;;
72065;SDS011;59939;52.516;13.420;2023-07-29T07:58:30;12.05;;;6.28;;
72065;SDS011;59939;52.516;13.420;2023-07-29T08:01:38;12.50;;;6.60;;
72065;SDS011;59939;52.516;13.420;2023-07-29T08:04:42;11.68;;;6.03;;
72065;SDS011;59939;52.516;13.420;2023-07-29T08:07:46;12.85;;;5.70;;
72065;SDS011;59939;52.516;13.420;2023-07-29T08:10:49;10.05;;;4.93;;
72065;SDS011;59939;52.516;13.420;2023-07-29T08:13:54;12.10;;;5.32;;
72065;SDS011;59939;52.516;13.420;2023-07-29T08:17:04;11.65;;;5.55;;
72065;SDS011;59939;52.516;13.420;2023-07-29T08:20:22;13.85;;;5.32;;
72065;SDS011;59939;52.516;13.420;2023-07-29T08:23:27;10.27;;;5.43;;
72065;SDS011;59939;52.516;13.420;2023-07-29T08:26:30;10.50;;;4.63;;
72065;SDS011;59939;52.516;13.420;2023-07-29T08:29:36;8.95;;;4.32;;
72065;SDS011;59939;52.516;13.420;2023-07-29T08:32:47;11.20;;;4.53;;
72065;SDS011;59939;52.516;13.420;2023-07-29T08:35:52;8.82;;;4.05;;
72065;SDS011;59939;52.516;13.420;2023-07-29T08:38:59;9.60;;;4.38;;
72065;SDS011;59939;52.516;13.420;2023-07-29T08:42:08;9.65;;;4.93;;
72065;SDS011;59939;52.516;13.420;2023-07-29T08:45:15;9.45;;;4.18;;
72065;SDS011;59939;52.516;13.420;2023-07-29T08:48:30;8.20;;;4.25;;
72065;SDS011;59939;52.516;13.420;2023-07-29T08:51:35;10.00;;;3.95;;
72065;SDS011;59939;52.516;13.420;2023-07-29T08:54:42;9.00;;;4.28;;
72065;SDS011;59939;52.516;13.420;2023-07-29T08:57:46;8.27;;;3.85;;
72065;SDS011;59939;52.516;13.420;2023-07-29T09:00:49;9.68;;;3.97;;
72065;SDS011;59939;52.516;13.420;2023-07-29T09:03:54;9.10;;;4.05;;
72065;SDS011;59939;52.516;13.420;2023-07-29T09:06:57;8.75;;;4.25;;
72065;SDS011;59939;52.516;13.420;2023-07-29T09:10:02;7.88;;;3.72;;
72065;SDS011;59939;52.516;13.420;2023-07-29T09:13:06;9.00;;;4.25;;
72065;SDS011;59939;52.516;13.420;2023-07-29T09:16:11;9.43;;;3.97;;
72065;SDS011;59939;52.516;13.420;2023-07-29T09:19:15;7.55;;;4.00;;
72065;SDS011;59939;52.516;13.420;2023-07-29T09:22:22;8.50;;;3.70;;
72065;SDS011;59939;52.516;13.420;2023-07-29T09:25:26;7.10;;;3.58;;
72065;SDS011;59939;52.516;13.420;2023-07-29T09:28:34;11.18;;;3.95;;
72065;SDS011;59939;52.516;13.420;2023-07-29T09:31:40;7.35;;;3.13;;
72065;SDS011;59939;52.516;13.420;2023-07-29T09:34:43;8.13;;;3.70;;
72065;SDS011;59939;52.516;13.420;2023-07-29T09:37:50;7.80;;;3.50;;
72065;SDS011;59939;52.516;13.420;2023-07-29T09:40:56;7.28;;;3.33;;
72065;SDS011;59939;52.516;13.420;2023-07-29T09:44:10;8.73;;;3.30;;
72065;SDS011;59939;52.516;13.420;2023-07-29T09:47:21;6.38;;;3.35;;
72065;SDS011;59939;52.516;13.420;2023-07-29T09:50:27;10.82;;;3.83;;
72065;SDS011;59939;52.516;13.420;2023-07-29T09:53:31;8.13;;;3.63;;
72065;SDS011;59939;52.516;13.420;2023-07-29T09:56:39;5.68;;;3.17;;
72065;SDS011;59939;52.516;13.420;2023-07-29T09:59:43;8.75;;;3.20;;
72065;SDS011;59939;52.516;13.420;2023-07-29T10:02:54;5.78;;;3.08;;
72065;SDS011;59939;52.516;13.420;2023-07-29T10:06:00;7.68;;;3.65;;
72065;SDS011;59939;52.516;13.420;2023-07-29T10:09:04;11.60;;;3.35;;
72065;SDS011;59939;52.516;13.420;2023-07-29T10:12:08;7.53;;;3.35;;
72065;SDS011;59939;52.516;13.420;2023-07-29T10:15:13;7.55;;;3.10;;
72065;SDS011;59939;52.516;13.420;2023-07-29T10:18:32;6.88;;;3.13;;
72065;SDS011;59939;52.516;13.420;2023-07-29T10:21:39;8.15;;;3.42;;
72065;SDS011;59939;52.516;13.420;2023-07-29T10:24:43;5.57;;;3.00;;
72065;SDS011;59939;52.516;13.420;2023-07-29T10:28:04;7.05;;;3.22;;
72065;SDS011;59939;52.516;13.420;2023-07-29T10:31:08;7.22;;;3.22;;
72065;SDS011;59939;52.516;13.420;2023-07-29T10:34:12;6.95;;;3.00;;
72065;SDS011;59939;52.516;13.420;2023-07-29T10:37:16;6.78;;;3.08;;
72065;SDS011;59939;52.516;13.420;2023-07-29T10:40:21;5.93;;;2.67;;
72065;SDS011;59939;52.516;13.420;2023-07-29T10:43:33;5.40;;;2.40;;
72065;SDS011;59939;52.516;13.420;2023-07-29T10:46:37;5.03;;;2.38;;
72065;SDS011;59939;52.516;13.420;2023-07-29T10:49:42;4.78;;;2.22;;
72065;SDS011;59939;52.516;13.420;2023-07-29T10:52:50;4.90;;;2.50;;
72065;SDS011;59939;52.516;13.420;2023-07-29T10:55:54;5.57;;;2.65;;
72065;SDS011;59939;52.516;13.420;2023-07-29T11:02:36;5.53;;;2.55;;
72065;SDS011;59939;52.516;13.420;2023-07-29T11:08:47;3.30;;;1.92;;
72065;SDS011;59939;52.516;13.420;2023-07-29T11:11:56;6.70;;;2.30;;
72065;SDS011;59939;52.516;13.420;2023-07-29T11:15:04;6.63;;;2.92;;
72065;SDS011;59939;52.516;13.420;2023-07-29T11:18:08;4.85;;;2.10;;
72065;SDS011;59939;52.516;13.420;2023-07-29T11:21:13;1.73;;;1.08;;
72065;SDS011;59939;52.516;13.420;2023-07-29T11:24:21;3.95;;;1.60;;
72065;SDS011;59939;52.516;13.420;2023-07-29T11:27:25;3.13;;;1.02;;
72065;SDS011;59939;52.516;13.420;2023-07-29T11:30:29;4.25;;;1.50;;
72065;SDS011;59939;52.516;13.420;2023-07-29T11:33:38;5.03;;;1.83;;
72065;SDS011;59939;52.516;13.420;2023-07-29T11:36:45;5.35;;;1.85;;
72065;SDS011;59939;52.516;13.420;2023-07-29T11:39:49;6.85;;;2.17;;
72065;SDS011;59939;52.516;13.420;2023-07-29T11:42:53;5.70;;;1.98;;
72065;SDS011;59939;52.516;13.420;2023-07-29T11:45:57;3.85;;;1.77;;
72065;SDS011;59939;52.516;13.420;2023-07-29T11:49:04;4.82;;;1.77;;
72065;SDS011;59939;52.516;13.420;2023-07-29T11:52:08;4.93;;;2.15;;
72065;SDS011;59939;52.516;13.420;2023-07-29T11:55:14;6.35;;;2.35;;
72065;SDS011;59939;52.516;13.420;2023-07-29T11:58:18;6.40;;;2.42;;
72065;SDS011;59939;52.516;13.420;2023-07-29T12:01:22;7.28;;;2.42;;
72065;SDS011;59939;52.516;13.420;2023-07-29T12:04:34;7.28;;;2.50;;
72065;SDS011;59939;52.516;13.420;2023-07-29T12:07:38;7.60;;;2.50;;
72065;SDS011;59939;52.516;13.420;2023-07-29T12:10:43;5.55;;;2.30;;
72065;SDS011;59939;52.516;13.420;2023-07-29T12:13:47;6.63;;;2.75;;
72065;SDS011;59939;52.516;13.420;2023-07-29T12:16:53;8.75;;;2.95;;
72065;SDS011;59939;52.516;13.420;2023-07-29T12:19:57;5.80;;;2.30;;
72065;SDS011;59939;52.516;13.420;2023-07-29T12:23:04;5.30;;;1.98;;
72065;SDS011;59939;52.516;13.420;2023-07-29T12:26:26;4.78;;;2.03;;
72065;SDS011;59939;52.516;13.420;2023-07-29T12:29:42;8.30;;;2.20;;
72065;SDS011;59939;52.516;13.420;2023-07-29T12:32:46;9.80;;;2.65;;
72065;SDS011;59939;52.516;13.420;2023-07-29T12:35:51;5.88;;;2.50;;
72065;SDS011;59939;52.516;13.420;2023-07-29T12:38:58;6.18;;;2.45;;
72065;SDS011;59939;52.516;13.420;2023-07-29T12:42:16;9.43;;;3.05;;
72065;SDS011;59939;52.516;13.420;2023-07-29T12:45:20;6.85;;;2.85;;
72065;SDS011;59939;52.516;13.420;2023-07-29T12:48:29;6.57;;;3.00;;
72065;SDS011;59939;52.516;13.420;2023-07-29T12:51:35;4.78;;;2.35;;
72065;SDS011;59939;52.516;13.420;2023-07-29T12:54:47;9.00;;;2.65;;
72065;SDS011;59939;52.516;13.420;2023-07-29T12:57:53;4.85;;;2.15;;
72065;SDS011;59939;52.516;13.420;2023-07-29T13:00:58;6.18;;;2.88;;
72065;SDS011;59939;52.516;13.420;2023-07-29T13:04:02;6.75;;;2.90;;
72065;SDS011;59939;52.516;13.420;2023-07-29T13:07:13;6.70;;;2.75;;
72065;SDS011;59939;52.516;13.420;2023-07-29T13:13:49;6.57;;;3.15;;
72065;SDS011;59939;52.516;13.420;2023-07-29T13:16:56;7.40;;;3.13;;
72065;SDS011;59939;52.516;13.420;2023-07-29T13:20:08;6.47;;;2.85;;
72065;SDS011;59939;52.516;13.420;2023-07-29T13:23:15;7.15;;;3.20;;
72065;SDS011;59939;52.516;13.420;2023-07-29T13:26:19;8.02;;;3.33;;
72065;SDS011;59939;52.516;13.420;2023-07-29T13:29:23;8.05;;;3.90;;
72065;SDS011;59939;52.516;13.420;2023-07-29T13:32:27;7.00;;;3.10;;
72065;SDS011;59939;52.516;13.420;2023-07-29T13:35:31;6.45;;;2.65;;
72065;SDS011;59939;52.516;13.420;2023-07-29T13:38:35;7.38;;;3.03;;
72065;SDS011;59939;52.516;13.420;2023-07-29T13:41:39;5.97;;;2.78;;
72065;SDS011;59939;52.516;13.420;2023-07-29T13:44:45;4.93;;;3.00;;
72065;SDS011;59939;52.516;13.420;2023-07-29T13:47:50;4.85;;;2.45;;
72065;SDS011;59939;52.516;13.420;2023-07-29T13:50:58;5.47;;;2.05;;
72065;SDS011;59939;52.516;13.420;2023-07-29T13:54:16;4.55;;;1.95;;
72065;SDS011;59939;52.516;13.420;2023-07-29T13:57:21;4.57;;;2.55;;
72065;SDS011;59939;52.516;13.420;2023-07-29T14:00:27;4.03;;;1.70;;
72065;SDS011;59939;52.516;13.420;2023-07-29T14:03:31;4.00;;;1.80;;
72065;SDS011;59939;52.516;13.420;2023-07-29T14:06:35;4.32;;;1.90;;
72065;SDS011;59939;52.516;13.420;2023-07-29T14:09:47;3.75;;;1.50;;
72065;SDS011;59939;52.516;13.420;2023-07-29T14:12:52;4.57;;;1.60;;
72065;SDS011;59939;52.516;13.420;2023-07-29T14:15:56;3.63;;;1.80;;
72065;SDS011;59939;52.516;13.420;2023-07-29T14:18:59;7.97;;;2.45;;
72065;SDS011;59939;52.516;13.420;2023-07-29T14:22:03;4.20;;;1.77;;
72065;SDS011;59939;52.516;13.420;2023-07-29T14:25:08;4.50;;;1.85;;
72065;SDS011;59939;52.516;13.420;2023-07-29T14:28:12;4.43;;;1.90;;
72065;SDS011;59939;52.516;13.420;2023-07-29T14:31:16;4.05;;;2.13;;
72065;SDS011;59939;52.516;13.420;2023-07-29T14:34:29;3.53;;;1.88;;
72065;SDS011;59939;52.516;13.420;2023-07-29T14:37:36;2.85;;;1.98;;
72065;SDS011;59939;52.516;13.420;2023-07-29T14:41:18;5.72;;;2.20;;
72065;SDS011;59939;52.516;13.420;2023-07-29T14:44:21;4.15;;;1.73;;
72065;SDS011;59939;52.516;13.420;2023-07-29T14:47:25;4.53;;;1.70;;
72065;SDS011;59939;52.516;13.420;2023-07-29T14:50:29;4.10;;;2.03;;
72065;SDS011;59939;52.516;13.420;2023-07-29T14:53:33;3.80;;;2.03;;
72065;SDS011;59939;52.516;13.420;2023-07-29T14:56:39;3.72;;;1.85;;
72065;SDS011;59939;52.516;13.420;2023-07-29T14:59:43;5.30;;;1.50;;
72065;SDS011;59939;52.516;13.420;2023-07-29T15:02:46;4.10;;;1.60;;
72065;SDS011;59939;52.516;13.420;2023-07-29T15:05:50;3.75;;;2.00;;
72065;SDS011;59939;52.516;13.420;2023-07-29T15:09:00;4.47;;;1.88;;
72065;SDS011;59939;52.516;13.420;2023-07-29T15:12:04;2.83;;;1.60;;
72065;SDS011;59939;52.516;13.420;2023-07-29T15:15:16;5.22;;;1.75;;
72065;SDS011;59939;52.516;13.420;2023-07-29T15:18:20;4.13;;;1.85;;
72065;SDS011;59939;52.516;13.420;2023-07-29T15:21:24;2.55;;;1.33;;
72065;SDS011;59939;52.516;13.420;2023-07-29T15:24:28;5.03;;;1.60;;
72065;SDS011;59939;52.516;13.420;2023-07-29T15:27:32;2.85;;;1.73;;
72065;SDS011;59939;52.516;13.420;2023-07-29T15:30:37;3.85;;;1.75;;
72065;SDS011;59939;52.516;13.420;2023-07-29T15:33:45;1.42;;;1.23;;
72065;SDS011;59939;52.516;13.420;2023-07-29T15:36:49;3.55;;;1.70;;
72065;SDS011;59939;52.516;13.420;2023-07-29T15:39:55;4.38;;;1.38;;
72065;SDS011;59939;52.516;13.420;2023-07-29T15:42:59;6.38;;;2.15;;
72065;SDS011;59939;52.516;13.420;2023-07-29T15:46:06;3.50;;;1.35;;
72065;SDS011;59939;52.516;13.420;2023-07-29T15:49:13;2.30;;;1.20;;
72065;SDS011;59939;52.516;13.420;2023-07-29T15:52:17;5.25;;;1.42;;
72065;SDS011;59939;52.516;13.420;2023-07-29T15:55:20;5.28;;;2.00;;
72065;SDS011;59939;52.516;13.420;2023-07-29T15:58:25;4.05;;;2.03;;
72065;SDS011;59939;52.516;13.420;2023-07-29T16:01:29;4.75;;;2.10;;
72065;SDS011;59939;52.516;13.420;2023-07-29T16:04:37;7.88;;;2.58;;
72065;SDS011;59939;52.516;13.420;2023-07-29T16:07:41;4.18;;;1.92;;
72065;SDS011;59939;52.516;13.420;2023-07-29T16:10:45;6.25;;;2.97;;
72065;SDS011;59939;52.516;13.420;2023-07-29T16:13:49;5.82;;;2.30;;
72065;SDS011;59939;52.516;13.420;2023-07-29T16:16:53;8.00;;;2.55;;
72065;SDS011;59939;52.516;13.420;2023-07-29T16:20:06;6.95;;;2.42;;
72065;SDS011;59939;52.516;13.420;2023-07-29T16:23:24;5.32;;;2.30;;
72065;SDS011;59939;52.516;13.420;2023-07-29T16:26:28;6.57;;;2.30;;
72065;SDS011;59939;52.516;13.420;2023-07-29T16:29:32;6.85;;;2.55;;
72065;SDS011;59939;52.516;13.420;2023-07-29T16:32:35;5.63;;;2.17;;
72065;SDS011;59939;52.516;13.420;2023-07-29T16:35:48;6.47;;;2.28;;
72065;SDS011;59939;52.516;13.420;2023-07-29T16:38:52;15.18;;;5.03;;
72065;SDS011;59939;52.516;13.420;2023-07-29T16:41:56;15.00;;;5.43;;
72065;SDS011;59939;52.516;13.420;2023-07-29T16:45:08;12.50;;;4.40;;
72065;SDS011;59939;52.516;13.420;2023-07-29T16:48:20;17.60;;;5.95;;
72065;SDS011;59939;52.516;13.420;2023-07-29T16:51:23;12.95;;;4.75;;
72065;SDS011;59939;52.516;13.420;2023-07-29T16:54:29;10.02;;;3.33;;
72065;SDS011;59939;52.516;13.420;2023-07-29T16:57:34;14.45;;;6.00;;
72065;SDS011;59939;52.516;13.420;2023-07-29T17:00:38;13.57;;;4.70;;
72065;SDS011;59939;52.516;13.420;2023-07-29T17:03:42;11.50;;;4.90;;
72065;SDS011;59939;52.516;13.420;2023-07-29T17:06:47;10.70;;;4.05;;
72065;SDS011;59939;52.516;13.420;2023-07-29T17:10:00;14.50;;;6.10;;
72065;SDS011;59939;52.516;13.420;2023-07-29T17:13:12;13.27;;;4.82;;
72065;SDS011;59939;52.516;13.420;2023-07-29T17:16:23;11.65;;;4.97;;
72065;SDS011;59939;52.516;13.420;2023-07-29T17:19:34;9.48;;;3.65;;
72065;SDS011;59939;52.516;13.420;2023-07-29T17:22:41;10.77;;;4.65;;
72065;SDS011;59939;52.516;13.420;2023-07-29T17:25:44;9.73;;;4.07;;
72065;SDS011;59939;52.516;13.420;2023-07-29T17:28:51;14.40;;;5.85;;
72065;SDS011;59939;52.516;13.420;2023-07-29T17:31:55;11.30;;;5.07;;
72065;SDS011;59939;52.516;13.420;2023-07-29T17:34:59;12.93;;;5.82;;
72065;SDS011;59939;52.516;13.420;2023-07-29T17:38:05;11.02;;;4.65;;
72065;SDS011;59939;52.516;13.420;2023-07-29T17:41:17;9.90;;;3.75;;
72065;SDS011;59939;52.516;13.420;2023-07-29T17:44:21;10.63;;;3.90;;
72065;SDS011;59939;52.516;13.420;2023-07-29T17:47:27;9.93;;;4.22;;
72065;SDS011;59939;52.516;13.420;2023-07-29T17:50:31;11.07;;;4.40;;
72065;SDS011;59939;52.516;13.420;2023-07-29T17:53:36;12.38;;;4.70;;
72065;SDS011;59939;52.516;13.420;2023-07-29T17:56:47;12.32;;;4.90;;
72065;SDS011;59939;52.516;13.420;2023-07-29T17:59:53;13.02;;;6.03;;
72065;SDS011;59939;52.516;13.420;2023-07-29T18:03:00;11.82;;;5.28;;
72065;SDS011;59939;52.516;13.420;2023-07-29T18:06:18;12.85;;;5.82;;
72065;SDS011;59939;52.516;13.420;2023-07-29T18:09:25;11.57;;;4.75;;
72065;SDS011;59939;52.516;13.420;2023-07-29T18:12:29;19.75;;;7.63;;
72065;SDS011;59939;52.516;13.420;2023-07-29T18:15:32;12.68;;;5.88;;
72065;SDS011;59939;52.516;13.420;2023-07-29T18:18:50;13.35;;;5.22;;
72065;SDS011;59939;52.516;13.420;2023-07-29T18:21:58;11.60;;;4.80;;
72065;SDS011;59939;52.516;13.420;2023-07-29T18:25:10;14.93;;;5.82;;
72065;SDS011;59939;52.516;13.420;2023-07-29T18:28:28;11.90;;;5.03;;
72065;SDS011;59939;52.516;13.420;2023-07-29T18:31:35;12.73;;;4.68;;
72065;SDS011;59939;52.516;13.420;2023-07-29T18:34:46;12.13;;;4.85;;
72065;SDS011;59939;52.516;13.420;2023-07-29T18:37:50;12.38;;;5.05;;